Boston, Massachusetts
Traffic Map
Current Weather Conditions
Boston, Massachusetts
Few Clouds
Few Clouds
10°
Feels Like: 10°
Wind Chill: 10° Ceiling: Unl
Heat Index: 10° Visibility: 10mi
Dew Point: Wind: 9mph
Humidity: 66% Direction: 270° (W)
Pressure: 29.93in Gusts: 0mph
Raw Report DataKBOS 301154Z 27008KT 10SM FEW200 10/04 A2993 RMK AO2 SLP133 70002 T01000039 10106 20083 51011
Traffic Incident Summary
Active as of:
Severity:
Category:
InformationThere was an issue retrieving the traffic information for this location. Please try a different location or try again shortly.
Advertisements
Track Severe Weather on mobile